Time;durP1;ratioP1;P1;durP2;ratioP2;P2;SDS_P1;SDS_P2;PMS_P1;PMS_P2;Temp;Humidity;BMP_temperature;BMP_pressure;BME280_temperature;BME280_humidity;BME280_pressure;Samples;Min_cycle;Max_cycle;Signal;HPM_P1;HPM_P2
2022/06/18 00:01:08;;;;;;;4.35;3.95;;;20.50;71.20;;;;;;1758776;79;21167;-65
2022/06/18 00:03:37;;;;;;;5.97;3.77;;;20.60;71.40;;;;;;1762344;81;21096;-65
2022/06/18 00:06:08;;;;;;;6.37;5.00;;;20.60;71.30;;;;;;1762393;81;21037;-65
2022/06/18 00:08:38;;;;;;;6.22;4.40;;;20.50;71.30;;;;;;1762319;81;21175;-65
2022/06/18 00:13:56;;;;;;;6.53;3.72;;;20.60;71.70;;;;;;1762342;81;21194;-65
2022/06/18 00:16:25;;;;;;;4.67;4.15;;;20.60;71.90;;;;;;1762416;81;21140;-65
2022/06/18 00:18:54;;;;;;;6.35;4.20;;;20.60;71.80;;;;;;1762362;81;21061;-65
2022/06/18 00:21:25;;;;;;;6.97;3.70;;;20.60;71.50;;;;;;1762284;81;21037;-65
2022/06/18 00:23:55;;;;;;;6.42;3.70;;;20.70;71.50;;;;;;1762461;81;21064;-65
2022/06/18 00:26:24;;;;;;;8.83;4.00;;;20.60;71.60;;;;;;1762385;81;21056;-65
2022/06/18 00:28:54;;;;;;;5.40;4.17;;;20.50;71.70;;;;;;1762401;81;21061;-65
2022/06/18 00:31:23;;;;;;;4.28;3.87;;;20.50;71.90;;;;;;1762454;80;21159;-65
2022/06/18 00:33:53;;;;;;;6.20;3.70;;;20.40;72.00;;;;;;1762439;81;21041;-65
2022/06/18 00:36:22;;;;;;;4.70;3.72;;;20.30;72.20;;;;;;1762381;81;21065;-65
2022/06/18 00:38:52;;;;;;;9.05;4.15;;;20.30;72.30;;;;;;1762376;81;21119;-65
2022/06/18 00:41:24;;;;;;;10.72;4.80;;;20.30;72.50;;;;;;1762536;81;21065;-65
2022/06/18 00:44:05;;;;;;;6.20;3.87;;;20.20;72.50;;;;;;1762465;81;21132;-65
2022/06/18 00:47:10;;;;;;;7.50;5.10;;;20.20;72.60;;;;;;1762132;81;21732;-65
2022/06/18 00:49:45;;;;;;;6.60;3.98;;;20.20;72.70;;;;;;1762433;81;21077;-65
2022/06/18 00:52:29;;;;;;;6.58;4.20;;;20.20;72.40;;;;;;1762597;81;21149;-65
2022/06/18 00:55:20;;;;;;;5.17;4.00;;;20.20;72.10;;;;;;1761787;81;21053;-65
2022/06/18 00:57:52;;;;;;;6.50;3.70;;;20.10;71.90;;;;;;1762331;81;21061;-65
2022/06/18 01:00:28;;;;;;;4.42;3.70;;;20.00;72.50;;;;;;1761444;81;21135;-65
2022/06/18 01:02:58;;;;;;;5.22;4.35;;;19.90;72.90;;;;;;1773147;79;21156;-65
2022/06/18 01:05:30;;;;;;;5.25;3.80;;;19.80;73.00;;;;;;1775644;80;21103;-65
2022/06/18 01:08:05;;;;;;;4.00;3.60;;;19.80;74.00;;;;;;1775177;81;21523;-65
2022/06/18 01:10:41;;;;;;;6.75;4.00;;;19.80;73.50;;;;;;1775293;81;21507;-65
2022/06/18 01:13:13;;;;;;;6.65;3.72;;;19.80;73.30;;;;;;1775826;80;21143;-65
2022/06/18 01:15:45;;;;;;;4.20;3.80;;;19.80;73.60;;;;;;1775658;80;21132;-65
2022/06/18 01:18:15;;;;;;;4.65;3.50;;;19.80;73.80;;;;;;1775846;80;21548;-65
2022/06/18 01:20:47;;;;;;;4.35;3.42;;;19.90;74.00;;;;;;1775690;80;21033;-65
2022/06/18 01:23:28;;;;;;;4.00;3.47;;;19.90;73.40;;;;;;1770610;80;21606;-65
2022/06/18 01:25:58;;;;;;;4.92;3.98;;;19.90;73.10;;;;;;1775657;80;21131;-65
2022/06/18 01:28:28;;;;;;;5.95;3.60;;;19.90;72.90;;;;;;1775647;79;21357;-65
2022/06/18 01:30:58;;;;;;;4.25;3.85;;;19.70;73.20;;;;;;1775796;81;21104;-65
2022/06/18 01:33:29;;;;;;;3.90;3.52;;;19.60;73.80;;;;;;1775883;81;21142;-65
2022/06/18 01:35:58;;;;;;;4.05;3.60;;;19.60;73.90;;;;;;1775806;80;21109;-65
2022/06/18 01:38:30;;;;;;;4.15;3.75;;;19.60;73.80;;;;;;1775521;80;21070;-65
2022/06/18 01:44:16;;;;;;;4.42;3.60;;;19.40;73.80;;;;;;1775725;80;21080;-65
2022/06/18 01:46:48;;;;;;;5.10;3.72;;;19.40;74.30;;;;;;1775684;81;21048;-65
2022/06/18 01:49:21;;;;;;;5.10;3.30;;;19.40;74.60;;;;;;1775464;79;21084;-65
2022/06/18 01:51:52;;;;;;;6.70;3.85;;;19.50;74.50;;;;;;1775707;80;21084;-65
2022/06/18 01:54:32;;;;;;;4.17;3.60;;;19.60;74.40;;;;;;1774360;81;21146;-66
2022/06/18 01:57:05;;;;;;;3.83;3.05;;;19.60;75.30;;;;;;1775622;80;21549;-66
2022/06/18 01:59:38;;;;;;;5.78;3.98;;;19.60;74.80;;;;;;1775745;80;21148;-66
2022/06/18 02:02:08;;;;;;;4.47;3.52;;;19.70;74.60;;;;;;1780620;79;21084;-66
2022/06/18 02:04:38;;;;;;;6.53;3.80;;;19.80;74.50;;;;;;1795247;80;21100;-66
2022/06/18 02:07:08;;;;;;;4.22;3.80;;;19.80;74.20;;;;;;1795118;80;21092;-66
2022/06/18 02:09:55;;;;;;;5.62;3.80;;;19.90;74.40;;;;;;1795039;80;21105;-66
2022/06/18 02:12:27;;;;;;;4.30;3.90;;;19.90;74.30;;;;;;1795117;80;21082;-66
2022/06/18 02:14:59;;;;;;;5.03;4.00;;;20.00;74.10;;;;;;1794903;80;21096;-66
2022/06/18 02:17:29;;;;;;;6.65;3.80;;;19.90;73.90;;;;;;1793977;80;21129;-66
2022/06/18 02:22:55;;;;;;;4.75;3.90;;;19.70;73.90;;;;;;1807824;78;21103;-65
2022/06/18 02:25:27;;;;;;;8.58;4.08;;;19.60;73.90;;;;;;1807452;78;21466;-66
2022/06/18 02:27:59;;;;;;;6.05;3.87;;;19.50;74.30;;;;;;1807481;79;21467;-66
2022/06/18 02:30:31;;;;;;;5.83;3.90;;;19.50;74.60;;;;;;1807491;79;21040;-66
2022/06/18 02:33:20;;;;;;;5.90;4.28;;;19.60;74.70;;;;;;1807488;78;21103;-66
2022/06/18 02:35:49;;;;;;;5.87;3.85;;;19.60;74.60;;;;;;1807499;79;21079;-66
2022/06/18 02:38:21;;;;;;;7.55;4.40;;;19.60;74.30;;;;;;1807517;78;21076;-66
2022/06/18 02:40:50;;;;;;;8.18;4.08;;;19.70;74.40;;;;;;1807500;78;21020;-67
2022/06/18 02:43:22;;;;;;;5.65;3.85;;;19.70;74.40;;;;;;1807406;78;21048;-67
2022/06/18 02:45:54;;;;;;;4.53;3.80;;;19.80;74.40;;;;;;1807484;78;21060;-67
2022/06/18 02:48:26;;;;;;;4.35;3.85;;;20.00;74.20;;;;;;1807381;78;21044;-67
2022/06/18 02:50:57;;;;;;;13.65;4.05;;;20.00;73.90;;;;;;1807435;79;21127;-67
2022/06/18 02:53:28;;;;;;;6.97;3.70;;;20.10;73.70;;;;;;1807527;79;21040;-67
2022/06/18 02:56:00;;;;;;;6.37;3.50;;;20.20;73.40;;;;;;1807471;78;21103;-67
2022/06/18 02:58:32;;;;;;;7.28;3.58;;;20.20;73.30;;;;;;1807445;79;21040;-67
2022/06/18 03:01:09;;;;;;;9.95;4.05;;;20.20;73.20;;;;;;1807512;79;21041;-67
2022/06/18 03:03:41;;;;;;;7.85;4.85;;;20.10;73.00;;;;;;1807521;79;21044;-66
2022/06/18 03:06:11;;;;;;;7.90;4.60;;;20.20;73.20;;;;;;1807518;78;21072;-67
2022/06/18 03:08:41;;;;;;;5.92;4.55;;;20.20;73.20;;;;;;1807420;78;21037;-67
2022/06/18 03:13:59;;;;;;;10.18;5.83;;;20.40;73.30;;;;;;1807413;79;21060;-67
2022/06/18 03:16:30;;;;;;;8.23;5.95;;;20.60;73.00;;;;;;1807265;78;21114;-67
2022/06/18 03:19:00;;;;;;;12.50;9.50;;;20.70;72.70;;;;;;1807416;78;21111;-67
2022/06/18 03:21:58;;;;;;;11.68;8.00;;;20.80;72.10;;;;;;1805464;78;21094;-67
2022/06/18 03:24:27;;;;;;;11.22;7.35;;;20.90;72.10;;;;;;1840812;77;21501;-66
2022/06/18 03:26:57;;;;;;;9.73;6.92;;;20.90;71.90;;;;;;1840742;78;21055;-66
2022/06/18 03:29:27;;;;;;;7.42;5.28;;;20.90;71.90;;;;;;1840720;78;21117;-66
2022/06/18 03:31:56;;;;;;;6.65;4.85;;;21.00;71.80;;;;;;1840687;77;21051;-66
2022/06/18 03:34:28;;;;;;;10.68;5.00;;;21.20;71.80;;;;;;1840628;77;21220;-66
2022/06/18 03:36:57;;;;;;;7.90;5.10;;;21.30;71.60;;;;;;1840944;77;21078;-66
2022/06/18 03:39:27;;;;;;;7.03;4.62;;;21.50;71.30;;;;;;1840727;77;21137;-66
2022/06/18 03:41:58;;;;;;;9.48;4.50;;;21.70;71.00;;;;;;1840712;78;21128;-66
2022/06/18 03:44:27;;;;;;;8.93;4.00;;;21.80;70.60;;;;;;1840812;77;21544;-66
2022/06/18 03:46:59;;;;;;;7.85;3.52;;;22.00;70.10;;;;;;1840755;78;21058;-66
2022/06/18 03:49:32;;;;;;;5.33;3.90;;;22.00;69.80;;;;;;1840189;77;21086;-66
2022/06/18 03:52:05;;;;;;;5.35;3.35;;;22.10;69.40;;;;;;1840864;77;21124;-65
2022/06/18 03:54:35;;;;;;;5.08;3.67;;;22.00;68.90;;;;;;1840753;78;21026;-66
2022/06/18 03:57:06;;;;;;;11.70;4.20;;;22.00;68.70;;;;;;1840449;77;21030;-66
2022/06/18 03:59:36;;;;;;;5.20;4.30;;;22.00;68.60;;;;;;1840596;77;21078;-66
2022/06/18 04:02:07;;;;;;;8.50;6.55;;;22.00;68.60;;;;;;1840785;77;21054;-66
2022/06/18 04:04:38;;;;;;;8.60;5.47;;;22.10;68.50;;;;;;1839920;77;21058;-66
2022/06/18 04:07:08;;;;;;;11.50;5.85;;;22.20;68.10;;;;;;1840805;77;21062;-66
2022/06/18 04:09:56;;;;;;;10.58;6.05;;;22.30;67.60;;;;;;1840804;78;21085;-67
2022/06/18 04:12:27;;;;;;;15.78;8.88;;;22.30;67.20;;;;;;1840350;78;21053;-67
2022/06/18 04:15:15;;;;;;;9.48;5.97;;;22.30;67.30;;;;;;1839187;77;21061;-67
2022/06/18 04:17:45;;;;;;;12.80;4.67;;;22.40;67.20;;;;;;1838293;76;21143;-67
2022/06/18 04:20:18;;;;;;;13.95;5.90;;;22.40;67.30;;;;;;1840945;77;21049;-68
2022/06/18 04:22:47;;;;;;;11.73;6.00;;;22.40;67.20;;;;;;1840184;77;21112;-66
2022/06/18 04:25:16;;;;;;;21.33;10.85;;;22.50;67.20;;;;;;1844899;78;21057;-67
2022/06/18 04:27:46;;;;;;;9.80;5.80;;;22.60;67.00;;;;;;1844760;77;21109;-68
2022/06/18 04:30:17;;;;;;;6.55;4.42;;;22.60;66.70;;;;;;1844790;77;21050;-67
2022/06/18 04:32:57;;;;;;;9.23;4.80;;;22.70;66.70;;;;;;1822896;76;21073;-67
2022/06/18 04:35:27;;;;;;;32.35;7.55;;;22.80;66.50;;;;;;1844842;78;21062;-67
2022/06/18 04:38:02;;;;;;;12.07;5.50;;;22.80;66.50;;;;;;1843517;75;21091;-67
2022/06/18 04:40:36;;;;;;;10.15;4.75;;;22.90;66.20;;;;;;1842664;75;21227;-67
2022/06/18 04:43:09;;;;;;;12.85;6.85;;;23.00;66.70;;;;;;1842863;78;21050;-67
2022/06/18 04:45:40;;;;;;;14.73;6.70;;;23.10;65.40;;;;;;1843458;77;21177;-67
2022/06/18 04:48:13;;;;;;;20.57;11.03;;;23.20;65.60;;;;;;1843942;75;21113;-67
2022/06/18 04:50:43;;;;;;;9.63;5.33;;;23.20;65.30;;;;;;1844936;76;21482;-67
2022/06/18 04:53:14;;;;;;;10.72;6.08;;;23.30;65.00;;;;;;1844859;76;21101;-67
2022/06/18 04:55:45;;;;;;;13.62;6.42;;;23.40;64.40;;;;;;1844497;75;21172;-66
2022/06/18 04:58:14;;;;;;;8.58;4.50;;;23.40;64.50;;;;;;1844941;77;21116;-66
2022/06/18 05:00:45;;;;;;;11.12;5.92;;;23.40;64.50;;;;;;1843636;75;21081;-67
2022/06/18 05:03:25;;;;;;;7.17;4.22;;;23.50;64.60;;;;;;1844740;76;21256;-66
2022/06/18 05:05:58;;;;;;;8.03;5.47;;;23.60;64.10;;;;;;1844241;77;21170;-67
2022/06/18 05:08:28;;;;;;;11.90;7.40;;;23.70;64.20;;;;;;1842609;76;21161;-67
2022/06/18 05:11:08;;;;;;;15.50;6.42;;;23.70;63.80;;;;;;1843758;75;21117;-67
2022/06/18 05:13:48;;;;;;;10.60;5.58;;;23.80;63.60;;;;;;1843648;76;21172;-67
2022/06/18 05:16:19;;;;;;;7.95;4.78;;;23.80;63.40;;;;;;1843676;76;21141;-67
2022/06/18 05:18:50;;;;;;;8.33;4.55;;;23.90;63.40;;;;;;1844990;77;21497;-67
2022/06/18 05:21:20;;;;;;;13.70;7.55;;;24.00;63.30;;;;;;1844905;76;21151;-67
2022/06/18 05:23:50;;;;;;;27.58;14.45;;;24.10;62.70;;;;;;1844846;76;21082;-67
2022/06/18 05:26:21;;;;;;;22.55;12.40;;;24.20;62.80;;;;;;1844444;76;21071;-67
2022/06/18 05:28:50;;;;;;;19.98;10.13;;;24.20;62.80;;;;;;1844756;76;21101;-67
2022/06/18 05:31:20;;;;;;;29.55;12.40;;;24.30;62.30;;;;;;1844862;77;21062;-67
2022/06/18 05:33:50;;;;;;;32.83;13.60;;;24.40;62.20;;;;;;1844919;78;21031;-67
2022/06/18 05:36:20;;;;;;;27.95;9.68;;;24.40;61.80;;;;;;1844893;76;21208;-67
2022/06/18 05:38:53;;;;;;;24.95;9.03;;;24.40;61.90;;;;;;1844873;77;21050;-67
2022/06/18 05:41:22;;;;;;;20.68;6.95;;;24.50;62.20;;;;;;1844781;76;21124;-67
2022/06/18 05:43:52;;;;;;;10.40;7.12;;;24.60;61.70;;;;;;1844762;76;21148;-67
2022/06/18 05:46:21;;;;;;;23.70;12.45;;;24.60;61.60;;;;;;1844797;76;21046;-67
2022/06/18 05:48:51;;;;;;;12.93;6.65;;;24.60;61.40;;;;;;1844853;78;21046;-67
2022/06/18 05:51:20;;;;;;;7.08;3.90;;;24.60;61.50;;;;;;1844898;76;21089;-67
2022/06/18 05:53:49;;;;;;;5.40;4.35;;;24.60;61.30;;;;;;1844853;76;21105;-67
2022/06/18 05:56:24;;;;;;;8.48;5.12;;;24.70;60.90;;;;;;1840974;78;21545;-67
2022/06/18 05:59:07;;;;;;;8.65;4.08;;;24.60;60.70;;;;;;1844903;77;21265;-67
2022/06/18 06:01:37;;;;;;;6.90;4.53;;;24.60;60.90;;;;;;1844418;78;21102;-67
2022/06/18 06:04:07;;;;;;;9.20;4.17;;;24.70;61.10;;;;;;1844808;76;21124;-67
2022/06/18 06:06:36;;;;;;;5.67;3.50;;;24.80;60.60;;;;;;1844809;77;21171;-67
2022/06/18 06:09:07;;;;;;;4.20;3.77;;;24.90;60.20;;;;;;1844831;78;21124;-67
2022/06/18 06:11:38;;;;;;;5.03;3.25;;;25.00;58.60;;;;;;1845188;78;21062;-66
2022/06/18 06:14:08;;;;;;;5.95;3.75;;;25.10;58.80;;;;;;1844933;78;21465;-67
2022/06/18 06:16:37;;;;;;;10.82;3.90;;;25.20;58.30;;;;;;1844959;77;21082;-66
2022/06/18 06:19:07;;;;;;;4.97;3.27;;;25.30;58.10;;;;;;1844871;78;21034;-67
2022/06/18 06:21:36;;;;;;;6.15;4.08;;;25.50;57.00;;;;;;1844941;78;21062;-66
2022/06/18 06:24:06;;;;;;;4.45;3.20;;;25.60;56.50;;;;;;1844912;77;21128;-65
2022/06/18 06:26:37;;;;;;;6.20;3.47;;;25.70;55.60;;;;;;1844881;78;21070;-66
2022/06/18 06:29:06;;;;;;;5.03;3.40;;;25.80;55.20;;;;;;1844879;77;21062;-66
2022/06/18 06:31:36;;;;;;;4.65;3.55;;;25.90;55.20;;;;;;1844862;78;21058;-66
2022/06/18 06:34:05;;;;;;;5.65;3.62;;;26.00;53.60;;;;;;1844871;78;21026;-66
2022/06/18 06:36:35;;;;;;;7.75;3.30;;;26.10;53.90;;;;;;1845063;78;21054;-66
2022/06/18 06:39:04;;;;;;;14.18;4.08;;;26.10;54.30;;;;;;1844992;76;21058;-66
2022/06/18 06:41:34;;;;;;;4.30;3.10;;;26.20;54.10;;;;;;1844869;77;21054;-66
2022/06/18 06:44:04;;;;;;;5.08;3.80;;;26.30;54.00;;;;;;1844849;77;21054;-66
2022/06/18 06:46:33;;;;;;;7.58;3.67;;;26.30;53.40;;;;;;1844964;78;21058;-66
2022/06/18 06:49:03;;;;;;;5.92;3.80;;;26.30;53.00;;;;;;1844924;78;21082;-66
2022/06/18 06:51:34;;;;;;;5.33;3.47;;;26.40;53.60;;;;;;1844962;76;21121;-66
2022/06/18 06:54:04;;;;;;;13.90;4.70;;;26.40;52.80;;;;;;1844876;77;21046;-66
2022/06/18 06:59:22;;;;;;;4.53;3.30;;;26.40;52.30;;;;;;1844978;76;21066;-66
2022/06/18 07:01:52;;;;;;;4.95;3.20;;;26.50;52.70;;;;;;1844897;77;21058;-66
2022/06/18 07:04:22;;;;;;;5.37;3.55;;;26.60;52.80;;;;;;1844940;78;21141;-66
2022/06/18 07:06:51;;;;;;;8.58;3.15;;;26.70;52.80;;;;;;1844717;76;21077;-66
2022/06/18 07:09:21;;;;;;;4.15;2.77;;;26.80;52.20;;;;;;1844953;78;21105;-66
2022/06/18 07:11:50;;;;;;;3.47;2.70;;;26.90;50.40;;;;;;1844794;78;21058;-66
2022/06/18 07:14:19;;;;;;;4.92;2.67;;;26.90;49.50;;;;;;1844898;76;21116;-66
2022/06/18 07:16:50;;;;;;;5.58;2.80;;;26.90;47.90;;;;;;1844887;77;21050;-66
2022/06/18 07:19:19;;;;;;;3.87;2.92;;;26.90;48.10;;;;;;1844806;76;21128;-66
2022/06/18 07:21:51;;;;;;;7.12;3.25;;;26.90;47.80;;;;;;1844909;76;21489;-66
2022/06/18 07:24:21;;;;;;;3.37;2.45;;;26.90;47.60;;;;;;1873933;76;21051;-66
2022/06/18 07:26:51;;;;;;;4.92;3.95;;;27.00;48.10;;;;;;1864655;75;21178;-67
2022/06/18 07:29:21;;;;;;;5.62;3.47;;;27.10;48.10;;;;;;1863878;76;21121;-66
2022/06/18 07:31:50;;;;;;;4.17;3.20;;;27.10;47.70;;;;;;1806176;79;21490;-67
2022/06/18 07:34:19;;;;;;;8.60;3.90;;;27.20;47.30;;;;;;1798071;79;21125;-66
2022/06/18 07:36:49;;;;;;;4.22;2.80;;;27.20;47.10;;;;;;1829379;78;21081;-66
2022/06/18 07:39:18;;;;;;;7.58;5.00;;;27.30;46.70;;;;;;1809546;79;21050;-66
2022/06/18 07:41:50;;;;;;;5.12;2.95;;;27.40;47.20;;;;;;1798070;79;21059;-67
2022/06/18 07:44:19;;;;;;;7.80;4.17;;;27.50;47.00;;;;;;1829326;77;21068;-67
2022/06/18 07:46:49;;;;;;;5.67;3.95;;;27.60;47.10;;;;;;1809589;79;21122;-67
2022/06/18 07:49:18;;;;;;;9.08;4.20;;;27.70;47.40;;;;;;1798075;80;21145;-66
2022/06/18 07:51:48;;;;;;;10.20;3.83;;;27.80;47.00;;;;;;1829338;77;21079;-67
2022/06/18 07:54:19;;;;;;;3.47;2.75;;;27.80;47.30;;;;;;1829463;77;21558;-66
2022/06/18 07:56:49;;;;;;;5.45;3.27;;;27.80;46.70;;;;;;1829426;77;21042;-66
2022/06/18 07:59:20;;;;;;;4.37;2.70;;;27.80;46.80;;;;;;1829446;78;21116;-66
2022/06/18 08:01:48;;;;;;;9.98;2.98;;;27.90;47.00;;;;;;1829318;78;21525;-66
2022/06/18 08:04:18;;;;;;;9.20;5.95;;;27.90;45.90;;;;;;1829308;78;21480;-66
2022/06/18 08:06:47;;;;;;;7.42;6.33;;;27.90;46.20;;;;;;1829336;78;21038;-67
2022/06/18 08:09:17;;;;;;;7.80;5.15;;;27.90;46.40;;;;;;1829247;77;21042;-67
2022/06/18 08:11:46;;;;;;;7.15;4.67;;;27.90;46.30;;;;;;1829279;77;21190;-66
2022/06/18 08:14:16;;;;;;;4.92;3.30;;;27.90;45.60;;;;;;1829382;78;21109;-67
2022/06/18 08:16:46;;;;;;;5.87;3.17;;;27.80;45.40;;;;;;1829341;77;21120;-67
2022/06/18 08:19:15;;;;;;;4.25;3.35;;;27.80;45.50;;;;;;1829356;78;21042;-66
2022/06/18 08:21:45;;;;;;;6.30;4.05;;;27.80;45.70;;;;;;1829294;77;21014;-66
2022/06/18 08:24:17;;;;;;;3.80;2.90;;;27.70;46.20;;;;;;1829331;77;21043;-66
2022/06/18 08:26:48;;;;;;;5.25;3.00;;;27.70;45.80;;;;;;1848937;76;21116;-67
2022/06/18 08:29:20;;;;;;;3.95;2.50;;;27.80;46.00;;;;;;1861272;76;21088;-67
2022/06/18 08:31:49;;;;;;;3.70;3.25;;;27.90;46.40;;;;;;1861271;77;21015;-67
2022/06/18 08:34:19;;;;;;;5.62;3.00;;;28.00;46.50;;;;;;1861374;76;21108;-67
2022/06/18 08:36:48;;;;;;;7.70;3.17;;;28.00;46.00;;;;;;1861213;76;21042;-67
2022/06/18 08:39:17;;;;;;;5.78;3.50;;;28.00;45.70;;;;;;1861153;76;21046;-67
2022/06/18 08:41:49;;;;;;;5.37;3.22;;;28.10;45.40;;;;;;1861235;76;21010;-67
2022/06/18 08:44:46;;;;;;;3.98;2.75;;;28.20;45.50;;;;;;1860768;76;21096;-67
2022/06/18 08:47:41;;;;;;;4.12;2.80;;;28.30;44.70;;;;;;1861289;77;21104;-67
2022/06/18 08:50:13;;;;;;;4.97;2.72;;;28.20;44.50;;;;;;1849601;76;21030;-67
2022/06/18 08:53:06;;;;;;;6.08;3.42;;;28.20;45.10;;;;;;1859903;76;21630;-67
2022/06/18 08:55:59;;;;;;;4.35;3.12;;;28.20;45.30;;;;;;1861179;76;21457;-67
2022/06/18 08:58:37;;;;;;;7.85;3.12;;;28.40;45.10;;;;;;1860939;76;21129;-67
2022/06/18 09:01:18;;;;;;;10.30;3.12;;;28.50;44.70;;;;;;1860772;76;21062;-67
2022/06/18 09:04:19;;;;;;;3.42;3.02;;;28.60;44.60;;;;;;1861421;76;21473;-67
2022/06/18 09:07:02;;;;;;;8.60;3.50;;;28.60;44.30;;;;;;1895237;74;21076;-67
2022/06/18 09:09:51;;;;;;;10.85;3.25;;;28.70;43.30;;;;;;1895658;76;21032;-67
2022/06/18 09:12:31;;;;;;;6.65;3.77;;;28.70;42.60;;;;;;1895594;76;21103;-67
2022/06/18 09:15:12;;;;;;;4.87;3.00;;;28.80;42.20;;;;;;1895676;76;21460;-67
2022/06/18 09:17:43;;;;;;;3.67;2.92;;;28.90;42.20;;;;;;1894595;74;21090;-66
2022/06/18 09:20:24;;;;;;;4.67;3.00;;;29.00;42.80;;;;;;1895761;76;21045;-67
2022/06/18 09:22:59;;;;;;;3.52;2.80;;;29.10;42.70;;;;;;1895645;76;20993;-67
2022/06/18 09:25:31;;;;;;;3.05;2.72;;;29.20;42.70;;;;;;1895836;76;21025;-67
2022/06/18 09:28:09;;;;;;;4.70;2.70;;;29.20;41.50;;;;;;1895669;76;21001;-67
2022/06/18 09:30:53;;;;;;;3.27;2.47;;;29.20;40.90;;;;;;1894332;74;21040;-66
2022/06/18 09:33:31;;;;;;;4.55;2.85;;;29.20;41.10;;;;;;1895680;76;21049;-68
2022/06/18 09:36:19;;;;;;;3.87;2.70;;;29.30;40.80;;;;;;1895824;76;21057;-68
2022/06/18 09:38:57;;;;;;;3.35;2.75;;;29.30;40.80;;;;;;1895672;76;21091;-68
2022/06/18 09:41:32;;;;;;;6.25;2.83;;;29.40;40.60;;;;;;1894736;74;21068;-68
2022/06/18 09:44:26;;;;;;;4.17;3.08;;;29.40;40.60;;;;;;1895073;75;21115;-68
2022/06/18 09:47:04;;;;;;;5.20;2.92;;;29.40;40.60;;;;;;1830077;78;21136;-68
2022/06/18 09:49:34;;;;;;;5.62;3.83;;;29.40;40.70;;;;;;1830070;78;21620;-68
2022/06/18 09:52:08;;;;;;;3.72;2.62;;;29.50;39.90;;;;;;1858827;76;21471;-68
2022/06/18 09:54:53;;;;;;;4.75;2.95;;;29.50;39.90;;;;;;1895729;75;21100;-68
2022/06/18 09:57:25;;;;;;;15.58;5.90;;;29.50;39.40;;;;;;1864040;74;21048;-68
2022/06/18 10:00:03;;;;;;;5.30;2.95;;;29.40;39.70;;;;;;1895475;76;21020;-68
2022/06/18 10:02:37;;;;;;;4.58;3.33;;;29.40;40.10;;;;;;1895096;76;21100;-67
2022/06/18 10:07:59;;;;;;;3.08;2.75;;;29.60;39.40;;;;;;1902338;74;21110;-67
2022/06/18 10:10:29;;;;;;;3.72;2.87;;;29.70;39.50;;;;;;1902360;75;21005;-67
2022/06/18 10:13:00;;;;;;;7.08;3.20;;;29.60;39.60;;;;;;1902336;74;21028;-67
2022/06/18 10:15:30;;;;;;;4.58;2.58;;;29.60;39.20;;;;;;1902291;75;21028;-67
2022/06/18 10:18:14;;;;;;;9.60;3.45;;;29.70;39.00;;;;;;1902182;74;21025;-67
2022/06/18 10:20:52;;;;;;;5.12;3.40;;;29.60;39.10;;;;;;1896949;74;21104;-67
2022/06/18 10:23:39;;;;;;;13.88;3.95;;;29.50;39.30;;;;;;1902222;75;20989;-67
2022/06/18 10:26:23;;;;;;;4.80;2.80;;;29.50;40.10;;;;;;1902224;75;21020;-67
2022/06/18 10:28:58;;;;;;;3.35;2.70;;;29.50;39.80;;;;;;1887084;75;21029;-67
2022/06/18 10:31:45;;;;;;;5.90;2.87;;;29.70;40.00;;;;;;1902069;74;21512;-67
2022/06/18 10:34:35;;;;;;;4.67;2.60;;;29.70;39.20;;;;;;1902303;75;21049;-67
2022/06/18 10:37:25;;;;;;;4.65;2.62;;;29.70;39.20;;;;;;1839163;78;21122;-67
2022/06/18 10:39:59;;;;;;;4.17;2.77;;;29.60;39.10;;;;;;1838620;78;21483;-67
2022/06/18 10:42:38;;;;;;;;;;;29.40;39.50;;;;;;1876125;74;21118;-67
2022/06/18 10:45:15;;;;;;;4.28;2.70;;;29.30;39.50;;;;;;1902199;75;20175;-67
2022/06/18 10:48:05;;;;;;;6.75;3.20;;;29.30;39.60;;;;;;1901876;74;21537;-67
2022/06/18 10:50:43;;;;;;;4.50;2.80;;;29.40;39.80;;;;;;1872600;76;21052;-68
2022/06/18 10:53:15;;;;;;;3.85;3.00;;;29.40;39.50;;;;;;1872395;77;21014;-67
2022/06/18 10:55:45;;;;;;;4.17;2.85;;;29.50;39.50;;;;;;1872490;77;21005;-67
2022/06/18 10:58:16;;;;;;;5.87;3.20;;;29.60;39.40;;;;;;1872545;76;21036;-68
2022/06/18 11:01:00;;;;;;;20.97;4.60;;;29.70;39.30;;;;;;1872556;77;21006;-68
2022/06/18 11:03:31;;;;;;;11.83;7.95;;;29.80;39.30;;;;;;1872609;76;21029;-68
2022/06/18 11:06:06;;;;;;;4.53;2.70;;;29.90;38.80;;;;;;1872511;77;21499;-68
2022/06/18 11:08:37;;;;;;;4.17;2.83;;;29.90;38.60;;;;;;1872157;76;21130;-68
2022/06/18 11:11:08;;;;;;;5.62;3.20;;;30.00;39.50;;;;;;1872567;77;21100;-68
2022/06/18 11:13:40;;;;;;;9.73;4.33;;;30.10;38.80;;;;;;1872505;77;21098;-67
2022/06/18 11:16:29;;;;;;;9.08;5.25;;;30.30;38.90;;;;;;1872404;77;21041;-67
2022/06/18 11:19:03;;;;;;;6.85;2.77;;;30.50;38.60;;;;;;1872440;76;21032;-67
2022/06/18 11:21:36;;;;;;;6.22;2.87;;;30.60;38.50;;;;;;1872404;77;21123;-67
2022/06/18 11:24:08;;;;;;;2.65;2.25;;;30.60;38.50;;;;;;1872407;77;21001;-67
2022/06/18 11:26:40;;;;;;;4.45;3.20;;;30.60;38.00;;;;;;1871367;76;21041;-66
2022/06/18 11:29:20;;;;;;;4.75;2.95;;;30.50;38.10;;;;;;1874243;76;21069;-67
2022/06/18 11:31:53;;;;;;;4.85;3.12;;;30.30;38.20;;;;;;1872526;77;21049;-67
2022/06/18 11:34:31;;;;;;;4.08;2.75;;;30.10;38.80;;;;;;1872497;77;21090;-67
2022/06/18 11:37:00;;;;;;;4.47;2.47;;;29.80;39.00;;;;;;1872259;76;21060;-67
2022/06/18 11:39:38;;;;;;;3.33;2.98;;;29.70;39.10;;;;;;1872597;77;21114;-67
2022/06/18 11:42:10;;;;;;;4.35;2.83;;;29.60;39.30;;;;;;1872541;77;21045;-67
2022/06/18 11:44:48;;;;;;;3.72;2.62;;;29.50;39.50;;;;;;1872595;77;21009;-67
2022/06/18 11:47:29;;;;;;;4.15;2.75;;;29.50;39.20;;;;;;1872512;77;21166;-67
2022/06/18 11:50:04;;;;;;;3.65;2.70;;;29.50;39.10;;;;;;1873445;76;21084;-68
2022/06/18 11:52:39;;;;;;;6.40;2.80;;;29.50;39.30;;;;;;1875451;76;21040;-67
2022/06/18 11:55:26;;;;;;;4.65;3.37;;;29.60;39.10;;;;;;1875494;76;21095;-67
2022/06/18 11:57:58;;;;;;;6.22;3.12;;;29.60;39.40;;;;;;1875569;76;21029;-67
2022/06/18 12:00:36;;;;;;;4.40;3.17;;;29.70;40.10;;;;;;1875716;76;21029;-67
2022/06/18 12:03:29;;;;;;;4.85;2.92;;;29.80;40.70;;;;;;1875677;76;21460;-67
2022/06/18 12:06:11;;;;;;;3.60;2.98;;;29.90;40.30;;;;;;1883115;76;21182;-67
2022/06/18 12:08:41;;;;;;;3.05;2.70;;;30.00;40.10;;;;;;1883169;76;21139;-67
2022/06/18 12:11:39;;;;;;;4.53;2.47;;;30.10;39.00;;;;;;1883120;76;21131;-67
2022/06/18 12:14:10;;;;;;;5.67;2.35;;;30.10;39.30;;;;;;1882064;76;21150;-67
2022/06/18 12:16:55;;;;;;;3.60;2.50;;;30.20;39.00;;;;;;1883056;76;21487;-67
2022/06/18 12:19:42;;;;;;;5.53;2.70;;;30.30;38.50;;;;;;1883187;76;21123;-67
2022/06/18 12:22:31;;;;;;;4.20;2.72;;;30.30;39.00;;;;;;1882982;76;21005;-67
2022/06/18 12:25:38;;;;;;;2.95;2.55;;;30.40;39.10;;;;;;1883187;76;21119;-67
2022/06/18 12:28:34;;;;;;;4.75;2.65;;;30.40;38.30;;;;;;1883041;76;21033;-66
2022/06/18 12:31:23;;;;;;;4.35;2.65;;;30.40;38.60;;;;;;1882669;76;21033;-67
2022/06/18 12:34:03;;;;;;;4.53;2.50;;;30.40;38.50;;;;;;1883103;76;21053;-67
2022/06/18 12:36:39;;;;;;;3.72;3.00;;;30.40;38.20;;;;;;1855885;76;21041;-67
2022/06/18 12:39:21;;;;;;;3.85;2.90;;;30.50;38.20;;;;;;1882858;76;21172;-67
2022/06/18 12:42:15;;;;;;;8.40;3.00;;;30.50;38.40;;;;;;1829397;78;21192;-67
2022/06/18 12:44:47;;;;;;;3.90;2.90;;;30.50;39.00;;;;;;1828473;77;21019;-67
2022/06/18 12:47:31;;;;;;;6.28;2.95;;;30.40;39.10;;;;;;1829407;78;21493;-67
2022/06/18 12:50:37;;;;;;;5.45;2.60;;;30.40;39.40;;;;;;1829693;78;21079;-68
2022/06/18 12:53:27;;;;;;;3.75;2.80;;;30.50;39.40;;;;;;1829420;78;21075;-67
2022/06/18 12:56:02;;;;;;;4.50;2.60;;;30.50;38.60;;;;;;1828623;78;21211;-67
2022/06/18 12:58:49;;;;;;;4.60;2.87;;;30.50;38.20;;;;;;1828380;78;21054;-67
2022/06/18 13:01:24;;;;;;;6.35;2.83;;;30.40;38.50;;;;;;1829570;78;21038;-67
2022/06/18 13:04:20;;;;;;;4.10;2.95;;;30.50;38.60;;;;;;1828409;77;21136;-67
2022/06/18 13:06:53;;;;;;;4.65;2.50;;;30.50;38.20;;;;;;1893360;76;21445;-67
2022/06/18 13:09:34;;;;;;;8.43;3.20;;;30.50;38.00;;;;;;1893153;75;21054;-67
2022/06/18 13:12:17;;;;;;;4.80;3.37;;;30.40;38.00;;;;;;1893071;75;21488;-67
2022/06/18 13:14:55;;;;;;;5.17;2.50;;;30.40;38.10;;;;;;1893610;76;21089;-68
2022/06/18 13:17:49;;;;;;;5.65;3.02;;;30.50;38.00;;;;;;1893549;76;21476;-68
2022/06/18 13:20:24;;;;;;;4.90;2.83;;;30.40;38.00;;;;;;1842053;78;21062;-66
2022/06/18 13:22:54;;;;;;;6.65;2.70;;;30.40;38.30;;;;;;1841701;78;21119;-66
2022/06/18 13:28:26;;;;;;;3.83;2.85;;;30.40;38.50;;;;;;1841533;78;21123;-67
2022/06/18 13:30:58;;;;;;;6.28;2.72;;;30.50;38.50;;;;;;1840832;78;21061;-68
2022/06/18 13:33:43;;;;;;;3.65;2.40;;;30.50;38.50;;;;;;1841579;78;21593;-68
2022/06/18 13:36:14;;;;;;;6.33;3.15;;;30.50;38.00;;;;;;1841638;78;21092;-68
2022/06/18 13:38:55;;;;;;;2.90;2.70;;;30.50;37.80;;;;;;1838868;78;21469;-68
2022/06/18 13:41:34;;;;;;;4.47;2.90;;;30.50;37.70;;;;;;1841401;78;21066;-68
2022/06/18 13:44:11;;;;;;;5.80;2.67;;;30.50;38.20;;;;;;1841566;78;21099;-67